sensor_id;sensor_type;location;lat;lon;timestamp;P1;durP1;ratioP1;P2;durP2;ratioP2
4353;SDS011;11018;51.258;6.806;2022-08-01T00:01:34;2.08;;;1.50;;
4353;SDS011;11018;51.258;6.806;2022-08-01T00:04:00;2.22;;;1.42;;
4353;SDS011;11018;51.258;6.806;2022-08-01T00:06:25;1.10;;;0.90;;
4353;SDS011;11018;51.258;6.806;2022-08-01T00:08:51;1.30;;;0.90;;
4353;SDS011;11018;51.258;6.806;2022-08-01T00:11:17;2.63;;;0.83;;
4353;SDS011;11018;51.258;6.806;2022-08-01T00:13:42;0.80;;;0.80;;
4353;SDS011;11018;51.258;6.806;2022-08-01T00:16:08;1.10;;;0.88;;
4353;SDS011;11018;51.258;6.806;2022-08-01T00:18:33;3.00;;;1.20;;
4353;SDS011;11018;51.258;6.806;2022-08-01T00:21:00;1.00;;;0.90;;
4353;SDS011;11018;51.258;6.806;2022-08-01T00:23:29;1.10;;;0.80;;
4353;SDS011;11018;51.258;6.806;2022-08-01T00:25:55;1.50;;;1.00;;
4353;SDS011;11018;51.258;6.806;2022-08-01T00:28:21;1.00;;;0.70;;
4353;SDS011;11018;51.258;6.806;2022-08-01T00:30:46;1.38;;;0.88;;
4353;SDS011;11018;51.258;6.806;2022-08-01T00:33:12;1.30;;;0.80;;
4353;SDS011;11018;51.258;6.806;2022-08-01T00:35:37;1.50;;;0.80;;
4353;SDS011;11018;51.258;6.806;2022-08-01T00:38:03;1.70;;;1.50;;
4353;SDS011;11018;51.258;6.806;2022-08-01T00:40:28;1.20;;;0.83;;
4353;SDS011;11018;51.258;6.806;2022-08-01T00:42:54;3.30;;;1.50;;
4353;SDS011;11018;51.258;6.806;2022-08-01T00:45:19;2.00;;;1.30;;
4353;SDS011;11018;51.258;6.806;2022-08-01T00:47:45;3.30;;;0.90;;
4353;SDS011;11018;51.258;6.806;2022-08-01T00:50:11;1.80;;;0.90;;
4353;SDS011;11018;51.258;6.806;2022-08-01T00:52:37;1.30;;;1.20;;
4353;SDS011;11018;51.258;6.806;2022-08-01T00:55:04;4.90;;;1.95;;
4353;SDS011;11018;51.258;6.806;2022-08-01T00:57:30;9.00;;;1.08;;
4353;SDS011;11018;51.258;6.806;2022-08-01T00:59:55;1.20;;;0.90;;
4353;SDS011;11018;51.258;6.806;2022-08-01T01:02:21;1.00;;;0.90;;
4353;SDS011;11018;51.258;6.806;2022-08-01T01:04:47;0.80;;;0.60;;
4353;SDS011;11018;51.258;6.806;2022-08-01T01:07:15;1.85;;;1.30;;
4353;SDS011;11018;51.258;6.806;2022-08-01T01:09:49;1.95;;;0.90;;
4353;SDS011;11018;51.258;6.806;2022-08-01T01:12:36;1.38;;;0.93;;
4353;SDS011;11018;51.258;6.806;2022-08-01T01:15:15;1.60;;;0.90;;
4353;SDS011;11018;51.258;6.806;2022-08-01T01:17:46;1.37;;;0.97;;
4353;SDS011;11018;51.258;6.806;2022-08-01T01:20:17;1.30;;;1.10;;
4353;SDS011;11018;51.258;6.806;2022-08-01T01:22:47;1.43;;;0.97;;
4353;SDS011;11018;51.258;6.806;2022-08-01T01:28:24;1.30;;;0.80;;
4353;SDS011;11018;51.258;6.806;2022-08-01T01:31:00;1.40;;;0.70;;
4353;SDS011;11018;51.258;6.806;2022-08-01T01:33:28;2.00;;;0.90;;
4353;SDS011;11018;51.258;6.806;2022-08-01T01:36:00;4.80;;;1.25;;
4353;SDS011;11018;51.258;6.806;2022-08-01T01:38:32;1.10;;;0.70;;
4353;SDS011;11018;51.258;6.806;2022-08-01T01:41:02;1.10;;;1.00;;
4353;SDS011;11018;51.258;6.806;2022-08-01T01:43:29;1.90;;;1.50;;
4353;SDS011;11018;51.258;6.806;2022-08-01T01:45:56;1.35;;;1.05;;
4353;SDS011;11018;51.258;6.806;2022-08-01T01:48:22;1.10;;;1.00;;
4353;SDS011;11018;51.258;6.806;2022-08-01T01:50:49;1.10;;;0.90;;
4353;SDS011;11018;51.258;6.806;2022-08-01T01:53:17;1.17;;;0.70;;
4353;SDS011;11018;51.258;6.806;2022-08-01T01:55:45;1.00;;;0.90;;
4353;SDS011;11018;51.258;6.806;2022-08-01T01:58:13;1.52;;;0.60;;
4353;SDS011;11018;51.258;6.806;2022-08-01T02:00:41;1.00;;;0.82;;
4353;SDS011;11018;51.258;6.806;2022-08-01T02:03:09;1.23;;;1.13;;
4353;SDS011;11018;51.258;6.806;2022-08-01T02:05:37;1.00;;;0.80;;
4353;SDS011;11018;51.258;6.806;2022-08-01T02:08:04;9.98;;;1.10;;
4353;SDS011;11018;51.258;6.806;2022-08-01T02:10:31;1.05;;;0.90;;
4353;SDS011;11018;51.258;6.806;2022-08-01T02:12:58;4.95;;;1.27;;
4353;SDS011;11018;51.258;6.806;2022-08-01T02:15:28;4.40;;;1.00;;
4353;SDS011;11018;51.258;6.806;2022-08-01T02:17:55;2.00;;;0.98;;
4353;SDS011;11018;51.258;6.806;2022-08-01T02:20:21;1.02;;;0.90;;
4353;SDS011;11018;51.258;6.806;2022-08-01T02:22:49;1.50;;;1.00;;
4353;SDS011;11018;51.258;6.806;2022-08-01T02:25:38;4.43;;;1.17;;
4353;SDS011;11018;51.258;6.806;2022-08-01T02:28:07;3.40;;;1.20;;
4353;SDS011;11018;51.258;6.806;2022-08-01T02:30:36;4.78;;;1.40;;
4353;SDS011;11018;51.258;6.806;2022-08-01T02:33:12;1.40;;;1.00;;
4353;SDS011;11018;51.258;6.806;2022-08-01T02:35:43;1.50;;;0.90;;
4353;SDS011;11018;51.258;6.806;2022-08-01T02:38:12;2.97;;;1.80;;
4353;SDS011;11018;51.258;6.806;2022-08-01T02:40:40;4.80;;;1.60;;
4353;SDS011;11018;51.258;6.806;2022-08-01T02:43:08;7.40;;;1.52;;
4353;SDS011;11018;51.258;6.806;2022-08-01T02:45:35;1.70;;;1.25;;
4353;SDS011;11018;51.258;6.806;2022-08-01T02:48:07;1.87;;;1.23;;
4353;SDS011;11018;51.258;6.806;2022-08-01T02:50:37;5.05;;;1.05;;
4353;SDS011;11018;51.258;6.806;2022-08-01T02:53:07;2.10;;;1.10;;
4353;SDS011;11018;51.258;6.806;2022-08-01T02:55:35;15.63;;;1.73;;
4353;SDS011;11018;51.258;6.806;2022-08-01T02:58:03;6.53;;;1.10;;
4353;SDS011;11018;51.258;6.806;2022-08-01T03:00:31;1.57;;;1.10;;
4353;SDS011;11018;51.258;6.806;2022-08-01T03:02:58;1.50;;;1.40;;
4353;SDS011;11018;51.258;6.806;2022-08-01T03:05:26;2.97;;;1.55;;
4353;SDS011;11018;51.258;6.806;2022-08-01T03:07:53;2.78;;;1.48;;
4353;SDS011;11018;51.258;6.806;2022-08-01T03:10:20;1.20;;;1.00;;
4353;SDS011;11018;51.258;6.806;2022-08-01T03:12:48;2.50;;;1.42;;
4353;SDS011;11018;51.258;6.806;2022-08-01T03:15:15;2.08;;;1.38;;
4353;SDS011;11018;51.258;6.806;2022-08-01T03:17:42;1.85;;;1.27;;
4353;SDS011;11018;51.258;6.806;2022-08-01T03:20:11;2.20;;;1.20;;
4353;SDS011;11018;51.258;6.806;2022-08-01T03:22:39;2.23;;;1.20;;
4353;SDS011;11018;51.258;6.806;2022-08-01T03:25:07;4.75;;;1.92;;
4353;SDS011;11018;51.258;6.806;2022-08-01T03:27:33;2.20;;;2.00;;
4353;SDS011;11018;51.258;6.806;2022-08-01T03:30:01;1.25;;;1.15;;
4353;SDS011;11018;51.258;6.806;2022-08-01T03:32:29;11.90;;;1.60;;
4353;SDS011;11018;51.258;6.806;2022-08-01T03:34:56;2.70;;;1.20;;
4353;SDS011;11018;51.258;6.806;2022-08-01T03:40:25;1.27;;;0.82;;
4353;SDS011;11018;51.258;6.806;2022-08-01T03:43:05;1.95;;;1.60;;
4353;SDS011;11018;51.258;6.806;2022-08-01T03:45:38;1.88;;;1.02;;
4353;SDS011;11018;51.258;6.806;2022-08-01T03:48:09;1.70;;;1.60;;
4353;SDS011;11018;51.258;6.806;2022-08-01T03:50:42;1.58;;;1.30;;
4353;SDS011;11018;51.258;6.806;2022-08-01T03:53:11;3.25;;;1.17;;
4353;SDS011;11018;51.258;6.806;2022-08-01T03:55:39;2.28;;;1.60;;
4353;SDS011;11018;51.258;6.806;2022-08-01T03:58:07;6.10;;;2.47;;
4353;SDS011;11018;51.258;6.806;2022-08-01T04:00:34;10.90;;;2.33;;
4353;SDS011;11018;51.258;6.806;2022-08-01T04:03:03;2.72;;;1.88;;
4353;SDS011;11018;51.258;6.806;2022-08-01T04:05:29;1.70;;;1.30;;
4353;SDS011;11018;51.258;6.806;2022-08-01T04:07:56;1.50;;;0.90;;
4353;SDS011;11018;51.258;6.806;2022-08-01T04:10:23;2.50;;;2.20;;
4353;SDS011;11018;51.258;6.806;2022-08-01T04:12:49;1.50;;;1.00;;
4353;SDS011;11018;51.258;6.806;2022-08-01T04:15:15;2.35;;;2.15;;
4353;SDS011;11018;51.258;6.806;2022-08-01T04:17:40;2.30;;;1.42;;
4353;SDS011;11018;51.258;6.806;2022-08-01T04:20:06;5.87;;;2.47;;
4353;SDS011;11018;51.258;6.806;2022-08-01T04:22:33;1.15;;;1.02;;
4353;SDS011;11018;51.258;6.806;2022-08-01T04:25:00;2.67;;;1.38;;
4353;SDS011;11018;51.258;6.806;2022-08-01T04:27:30;2.85;;;1.38;;
4353;SDS011;11018;51.258;6.806;2022-08-01T04:29:59;4.47;;;2.25;;
4353;SDS011;11018;51.258;6.806;2022-08-01T04:32:27;6.18;;;2.08;;
4353;SDS011;11018;51.258;6.806;2022-08-01T04:34:55;3.30;;;1.70;;
4353;SDS011;11018;51.258;6.806;2022-08-01T04:37:24;2.80;;;2.30;;
4353;SDS011;11018;51.258;6.806;2022-08-01T04:39:52;5.80;;;1.42;;
4353;SDS011;11018;51.258;6.806;2022-08-01T04:42:19;1.30;;;1.20;;
4353;SDS011;11018;51.258;6.806;2022-08-01T04:44:46;2.47;;;1.20;;
4353;SDS011;11018;51.258;6.806;2022-08-01T04:47:11;2.30;;;1.90;;
4353;SDS011;11018;51.258;6.806;2022-08-01T04:49:38;2.40;;;1.75;;
4353;SDS011;11018;51.258;6.806;2022-08-01T04:52:05;2.67;;;2.20;;
4353;SDS011;11018;51.258;6.806;2022-08-01T04:54:32;4.60;;;2.38;;
4353;SDS011;11018;51.258;6.806;2022-08-01T04:57:01;1.27;;;1.17;;
4353;SDS011;11018;51.258;6.806;2022-08-01T04:59:28;3.10;;;2.03;;
4353;SDS011;11018;51.258;6.806;2022-08-01T05:02:04;9.70;;;1.87;;
4353;SDS011;11018;51.258;6.806;2022-08-01T05:04:30;2.85;;;1.42;;
4353;SDS011;11018;51.258;6.806;2022-08-01T05:06:56;3.30;;;2.10;;
4353;SDS011;11018;51.258;6.806;2022-08-01T05:09:21;8.20;;;2.40;;
4353;SDS011;11018;51.258;6.806;2022-08-01T05:11:47;5.03;;;1.65;;
4353;SDS011;11018;51.258;6.806;2022-08-01T05:14:12;6.50;;;1.70;;
4353;SDS011;11018;51.258;6.806;2022-08-01T05:16:38;2.70;;;2.20;;
4353;SDS011;11018;51.258;6.806;2022-08-01T05:19:04;3.20;;;1.97;;
4353;SDS011;11018;51.258;6.806;2022-08-01T05:21:29;4.00;;;2.63;;
4353;SDS011;11018;51.258;6.806;2022-08-01T05:23:55;6.28;;;1.98;;
4353;SDS011;11018;51.258;6.806;2022-08-01T05:26:20;3.70;;;1.97;;
4353;SDS011;11018;51.258;6.806;2022-08-01T05:28:46;4.60;;;1.60;;
4353;SDS011;11018;51.258;6.806;2022-08-01T05:31:11;1.35;;;1.15;;
4353;SDS011;11018;51.258;6.806;2022-08-01T05:33:37;3.60;;;1.83;;
4353;SDS011;11018;51.258;6.806;2022-08-01T05:36:03;2.00;;;1.20;;
4353;SDS011;11018;51.258;6.806;2022-08-01T05:38:28;3.60;;;1.48;;
4353;SDS011;11018;51.258;6.806;2022-08-01T05:40:54;6.30;;;1.90;;
4353;SDS011;11018;51.258;6.806;2022-08-01T05:43:19;3.33;;;1.65;;
4353;SDS011;11018;51.258;6.806;2022-08-01T05:45:45;5.93;;;1.70;;
4353;SDS011;11018;51.258;6.806;2022-08-01T05:48:11;2.80;;;1.50;;
4353;SDS011;11018;51.258;6.806;2022-08-01T05:50:36;2.58;;;1.95;;
4353;SDS011;11018;51.258;6.806;2022-08-01T05:53:02;2.13;;;1.90;;
4353;SDS011;11018;51.258;6.806;2022-08-01T05:55:27;4.53;;;2.00;;
4353;SDS011;11018;51.258;6.806;2022-08-01T05:57:53;3.05;;;1.60;;
4353;SDS011;11018;51.258;6.806;2022-08-01T06:00:19;3.40;;;1.87;;
4353;SDS011;11018;51.258;6.806;2022-08-01T06:02:44;2.50;;;2.00;;
4353;SDS011;11018;51.258;6.806;2022-08-01T06:05:10;3.25;;;2.22;;
4353;SDS011;11018;51.258;6.806;2022-08-01T06:07:36;4.80;;;1.90;;
4353;SDS011;11018;51.258;6.806;2022-08-01T06:10:03;5.93;;;1.70;;
4353;SDS011;11018;51.258;6.806;2022-08-01T06:12:29;1.60;;;1.50;;
4353;SDS011;11018;51.258;6.806;2022-08-01T06:14:58;3.67;;;2.78;;
4353;SDS011;11018;51.258;6.806;2022-08-01T06:17:23;5.23;;;2.17;;
4353;SDS011;11018;51.258;6.806;2022-08-01T06:19:49;4.95;;;2.60;;
4353;SDS011;11018;51.258;6.806;2022-08-01T06:22:14;5.40;;;3.23;;
4353;SDS011;11018;51.258;6.806;2022-08-01T06:24:40;2.80;;;1.73;;
4353;SDS011;11018;51.258;6.806;2022-08-01T06:27:05;3.70;;;2.00;;
4353;SDS011;11018;51.258;6.806;2022-08-01T06:29:31;4.70;;;2.20;;
4353;SDS011;11018;51.258;6.806;2022-08-01T06:31:57;2.47;;;1.97;;
4353;SDS011;11018;51.258;6.806;2022-08-01T06:34:23;3.72;;;2.03;;
4353;SDS011;11018;51.258;6.806;2022-08-01T06:36:49;7.00;;;2.00;;
4353;SDS011;11018;51.258;6.806;2022-08-01T06:39:14;9.20;;;1.92;;
4353;SDS011;11018;51.258;6.806;2022-08-01T06:41:40;1.50;;;0.90;;
4353;SDS011;11018;51.258;6.806;2022-08-01T06:44:11;4.60;;;1.40;;
4353;SDS011;11018;51.258;6.806;2022-08-01T06:46:36;4.47;;;1.87;;
4353;SDS011;11018;51.258;6.806;2022-08-01T06:49:02;2.53;;;1.00;;
4353;SDS011;11018;51.258;6.806;2022-08-01T06:51:28;1.70;;;1.25;;
4353;SDS011;11018;51.258;6.806;2022-08-01T06:53:53;1.50;;;1.40;;
4353;SDS011;11018;51.258;6.806;2022-08-01T06:56:19;2.90;;;1.43;;
4353;SDS011;11018;51.258;6.806;2022-08-01T06:58:45;10.80;;;1.60;;
4353;SDS011;11018;51.258;6.806;2022-08-01T07:01:10;3.20;;;1.92;;
4353;SDS011;11018;51.258;6.806;2022-08-01T07:03:36;2.80;;;1.50;;
4353;SDS011;11018;51.258;6.806;2022-08-01T07:06:02;1.00;;;0.73;;
4353;SDS011;11018;51.258;6.806;2022-08-01T07:08:28;1.70;;;0.90;;
4353;SDS011;11018;51.258;6.806;2022-08-01T07:10:54;4.20;;;1.70;;
4353;SDS011;11018;51.258;6.806;2022-08-01T07:13:20;1.92;;;1.73;;
4353;SDS011;11018;51.258;6.806;2022-08-01T07:15:49;1.10;;;0.80;;
4353;SDS011;11018;51.258;6.806;2022-08-01T07:18:15;1.60;;;1.38;;
4353;SDS011;11018;51.258;6.806;2022-08-01T07:20:41;0.90;;;0.68;;
4353;SDS011;11018;51.258;6.806;2022-08-01T07:23:06;1.40;;;0.97;;
4353;SDS011;11018;51.258;6.806;2022-08-01T07:25:32;1.00;;;0.90;;
4353;SDS011;11018;51.258;6.806;2022-08-01T07:27:58;5.00;;;0.90;;
4353;SDS011;11018;51.258;6.806;2022-08-01T07:30:23;2.10;;;1.17;;
4353;SDS011;11018;51.258;6.806;2022-08-01T07:32:49;0.90;;;0.80;;
4353;SDS011;11018;51.258;6.806;2022-08-01T07:35:14;4.20;;;1.00;;
4353;SDS011;11018;51.258;6.806;2022-08-01T07:37:40;1.77;;;1.00;;
4353;SDS011;11018;51.258;6.806;2022-08-01T07:40:06;2.60;;;0.80;;
4353;SDS011;11018;51.258;6.806;2022-08-01T07:42:32;2.20;;;0.90;;
4353;SDS011;11018;51.258;6.806;2022-08-01T07:44:57;0.80;;;0.63;;
4353;SDS011;11018;51.258;6.806;2022-08-01T07:47:23;2.50;;;0.80;;
4353;SDS011;11018;51.258;6.806;2022-08-01T07:49:50;1.58;;;0.82;;
4353;SDS011;11018;51.258;6.806;2022-08-01T07:52:16;1.75;;;0.88;;
4353;SDS011;11018;51.258;6.806;2022-08-01T07:54:41;0.90;;;0.70;;
4353;SDS011;11018;51.258;6.806;2022-08-01T07:57:07;1.40;;;0.70;;
4353;SDS011;11018;51.258;6.806;2022-08-01T07:59:33;1.40;;;1.00;;
4353;SDS011;11018;51.258;6.806;2022-08-01T08:01:59;1.20;;;0.90;;
4353;SDS011;11018;51.258;6.806;2022-08-01T08:04:25;1.10;;;0.80;;
4353;SDS011;11018;51.258;6.806;2022-08-01T08:06:51;1.40;;;0.90;;
4353;SDS011;11018;51.258;6.806;2022-08-01T08:09:18;1.27;;;1.00;;
4353;SDS011;11018;51.258;6.806;2022-08-01T08:11:44;3.60;;;1.23;;
4353;SDS011;11018;51.258;6.806;2022-08-01T08:14:11;1.00;;;0.80;;
4353;SDS011;11018;51.258;6.806;2022-08-01T08:16:37;1.70;;;0.90;;
4353;SDS011;11018;51.258;6.806;2022-08-01T08:19:03;3.70;;;0.90;;
4353;SDS011;11018;51.258;6.806;2022-08-01T08:21:29;0.95;;;0.70;;
4353;SDS011;11018;51.258;6.806;2022-08-01T08:23:55;1.52;;;1.42;;
4353;SDS011;11018;51.258;6.806;2022-08-01T08:26:51;1.17;;;0.68;;
4353;SDS011;11018;51.258;6.806;2022-08-01T08:29:19;1.00;;;0.90;;
4353;SDS011;11018;51.258;6.806;2022-08-01T08:31:46;0.80;;;0.60;;
4353;SDS011;11018;51.258;6.806;2022-08-01T08:34:12;1.30;;;1.00;;
4353;SDS011;11018;51.258;6.806;2022-08-01T08:36:38;0.80;;;0.63;;
4353;SDS011;11018;51.258;6.806;2022-08-01T08:39:04;1.10;;;0.60;;
4353;SDS011;11018;51.258;6.806;2022-08-01T08:41:30;0.90;;;0.50;;
4353;SDS011;11018;51.258;6.806;2022-08-01T08:43:57;1.50;;;1.15;;
4353;SDS011;11018;51.258;6.806;2022-08-01T08:46:26;1.10;;;0.60;;
4353;SDS011;11018;51.258;6.806;2022-08-01T08:48:52;1.20;;;0.70;;
4353;SDS011;11018;51.258;6.806;2022-08-01T08:51:18;3.30;;;1.00;;
4353;SDS011;11018;51.258;6.806;2022-08-01T08:53:44;3.70;;;0.90;;
4353;SDS011;11018;51.258;6.806;2022-08-01T08:56:12;1.30;;;0.80;;
4353;SDS011;11018;51.258;6.806;2022-08-01T08:58:38;1.30;;;1.10;;
4353;SDS011;11018;51.258;6.806;2022-08-01T09:01:08;2.10;;;1.30;;
4353;SDS011;11018;51.258;6.806;2022-08-01T09:03:35;1.17;;;0.77;;
4353;SDS011;11018;51.258;6.806;2022-08-01T09:06:01;4.60;;;1.60;;
4353;SDS011;11018;51.258;6.806;2022-08-01T09:08:28;1.00;;;0.75;;
4353;SDS011;11018;51.258;6.806;2022-08-01T09:10:54;0.80;;;0.63;;
4353;SDS011;11018;51.258;6.806;2022-08-01T09:13:20;1.30;;;0.88;;
4353;SDS011;11018;51.258;6.806;2022-08-01T09:15:50;1.30;;;1.00;;
4353;SDS011;11018;51.258;6.806;2022-08-01T09:18:25;0.85;;;0.60;;
4353;SDS011;11018;51.258;6.806;2022-08-01T09:23:42;0.80;;;0.50;;
4353;SDS011;11018;51.258;6.806;2022-08-01T09:26:12;0.80;;;0.50;;
4353;SDS011;11018;51.258;6.806;2022-08-01T09:28:38;0.80;;;0.50;;
4353;SDS011;11018;51.258;6.806;2022-08-01T09:31:12;2.60;;;0.60;;
4353;SDS011;11018;51.258;6.806;2022-08-01T09:33:50;2.10;;;1.00;;
4353;SDS011;11018;51.258;6.806;2022-08-01T09:36:18;1.30;;;0.70;;
4353;SDS011;11018;51.258;6.806;2022-08-01T09:38:45;1.20;;;0.60;;
4353;SDS011;11018;51.258;6.806;2022-08-01T09:41:10;1.10;;;0.60;;
4353;SDS011;11018;51.258;6.806;2022-08-01T09:43:36;0.90;;;0.80;;
4353;SDS011;11018;51.258;6.806;2022-08-01T09:46:11;1.20;;;0.90;;
4353;SDS011;11018;51.258;6.806;2022-08-01T09:48:37;1.80;;;0.70;;
4353;SDS011;11018;51.258;6.806;2022-08-01T09:51:04;1.20;;;1.10;;
4353;SDS011;11018;51.258;6.806;2022-08-01T09:53:44;1.60;;;1.10;;
4353;SDS011;11018;51.258;6.806;2022-08-01T09:56:12;1.40;;;0.90;;
4353;SDS011;11018;51.258;6.806;2022-08-01T09:58:57;2.80;;;0.80;;
4353;SDS011;11018;51.258;6.806;2022-08-01T10:01:23;1.02;;;0.70;;
4353;SDS011;11018;51.258;6.806;2022-08-01T10:06:52;7.38;;;4.70;;
4353;SDS011;11018;51.258;6.806;2022-08-01T10:09:33;8.05;;;5.10;;
4353;SDS011;11018;51.258;6.806;2022-08-01T10:12:00;7.80;;;4.80;;
4353;SDS011;11018;51.258;6.806;2022-08-01T10:14:27;9.70;;;4.53;;
4353;SDS011;11018;51.258;6.806;2022-08-01T10:16:54;3.88;;;3.47;;
4353;SDS011;11018;51.258;6.806;2022-08-01T10:19:22;8.88;;;4.20;;
4353;SDS011;11018;51.258;6.806;2022-08-01T10:21:48;6.83;;;4.23;;
4353;SDS011;11018;51.258;6.806;2022-08-01T10:24:17;3.80;;;3.50;;
4353;SDS011;11018;51.258;6.806;2022-08-01T10:26:48;4.30;;;3.63;;
4353;SDS011;11018;51.258;6.806;2022-08-01T10:29:16;6.63;;;4.00;;
4353;SDS011;11018;51.258;6.806;2022-08-01T10:31:46;6.47;;;4.68;;
4353;SDS011;11018;51.258;6.806;2022-08-01T10:34:13;4.47;;;4.00;;
4353;SDS011;11018;51.258;6.806;2022-08-01T10:36:41;6.03;;;4.70;;
4353;SDS011;11018;51.258;6.806;2022-08-01T10:39:10;7.40;;;4.70;;
4353;SDS011;11018;51.258;6.806;2022-08-01T10:41:37;5.38;;;3.90;;
4353;SDS011;11018;51.258;6.806;2022-08-01T10:44:03;5.88;;;3.45;;
4353;SDS011;11018;51.258;6.806;2022-08-01T10:46:32;3.85;;;3.17;;
4353;SDS011;11018;51.258;6.806;2022-08-01T10:49:03;4.70;;;2.80;;
4353;SDS011;11018;51.258;6.806;2022-08-01T10:51:34;3.60;;;3.30;;
4353;SDS011;11018;51.258;6.806;2022-08-01T10:54:05;3.13;;;2.63;;
4353;SDS011;11018;51.258;6.806;2022-08-01T10:56:46;4.90;;;2.60;;
4353;SDS011;11018;51.258;6.806;2022-08-01T10:59:22;2.83;;;2.30;;
4353;SDS011;11018;51.258;6.806;2022-08-01T11:01:56;2.30;;;2.10;;
4353;SDS011;11018;51.258;6.806;2022-08-01T11:04:33;2.92;;;2.10;;
4353;SDS011;11018;51.258;6.806;2022-08-01T11:07:12;2.75;;;2.50;;
4353;SDS011;11018;51.258;6.806;2022-08-01T11:09:45;2.28;;;2.00;;
4353;SDS011;11018;51.258;6.806;2022-08-01T11:12:15;2.85;;;2.30;;
4353;SDS011;11018;51.258;6.806;2022-08-01T11:26:10;2.70;;;2.50;;
4353;SDS011;11018;51.258;6.806;2022-08-01T11:30:39;2.67;;;2.47;;
4353;SDS011;11018;51.258;6.806;2022-08-01T11:33:05;3.92;;;2.20;;
4353;SDS011;11018;51.258;6.806;2022-08-01T11:35:31;2.33;;;2.13;;
4353;SDS011;11018;51.258;6.806;2022-08-01T11:38:05;2.20;;;2.10;;
4353;SDS011;11018;51.258;6.806;2022-08-01T11:46:48;3.20;;;1.90;;
4353;SDS011;11018;51.258;6.806;2022-08-01T11:54:52;2.40;;;1.70;;
4353;SDS011;11018;51.258;6.806;2022-08-01T11:59:56;5.20;;;2.80;;
4353;SDS011;11018;51.258;6.806;2022-08-01T12:02:23;7.00;;;2.78;;
4353;SDS011;11018;51.258;6.806;2022-08-01T12:05:00;5.10;;;3.08;;
4353;SDS011;11018;51.258;6.806;2022-08-01T12:07:29;5.72;;;2.72;;
4353;SDS011;11018;51.258;6.806;2022-08-01T12:09:57;3.93;;;2.93;;
4353;SDS011;11018;51.258;6.806;2022-08-01T12:12:29;4.25;;;3.15;;
4353;SDS011;11018;51.258;6.806;2022-08-01T12:14:57;4.38;;;2.95;;
4353;SDS011;11018;51.258;6.806;2022-08-01T12:17:28;2.65;;;2.45;;
4353;SDS011;11018;51.258;6.806;2022-08-01T12:19:56;4.72;;;2.42;;
4353;SDS011;11018;51.258;6.806;2022-08-01T12:22:22;4.03;;;2.60;;
4353;SDS011;11018;51.258;6.806;2022-08-01T12:24:48;6.13;;;2.30;;
4353;SDS011;11018;51.258;6.806;2022-08-01T12:27:23;2.80;;;1.90;;
4353;SDS011;11018;51.258;6.806;2022-08-01T12:29:53;2.00;;;1.90;;
4353;SDS011;11018;51.258;6.806;2022-08-01T12:34:50;2.55;;;2.28;;
4353;SDS011;11018;51.258;6.806;2022-08-01T12:37:17;2.22;;;2.03;;
4353;SDS011;11018;51.258;6.806;2022-08-01T12:39:43;4.90;;;2.20;;
4353;SDS011;11018;51.258;6.806;2022-08-01T12:42:09;4.60;;;1.90;;
4353;SDS011;11018;51.258;6.806;2022-08-01T12:44:35;4.60;;;1.90;;
4353;SDS011;11018;51.258;6.806;2022-08-01T12:47:02;3.07;;;2.17;;
4353;SDS011;11018;51.258;6.806;2022-08-01T12:49:30;2.58;;;2.10;;
4353;SDS011;11018;51.258;6.806;2022-08-01T12:51:57;3.90;;;2.10;;
4353;SDS011;11018;51.258;6.806;2022-08-01T12:54:23;2.00;;;1.90;;
4353;SDS011;11018;51.258;6.806;2022-08-01T12:56:50;2.28;;;1.83;;
4353;SDS011;11018;51.258;6.806;2022-08-01T13:01:51;2.40;;;2.20;;
4353;SDS011;11018;51.258;6.806;2022-08-01T13:04:20;4.30;;;2.70;;
4353;SDS011;11018;51.258;6.806;2022-08-01T13:06:46;2.30;;;2.20;;
4353;SDS011;11018;51.258;6.806;2022-08-01T13:09:12;2.30;;;2.10;;
4353;SDS011;11018;51.258;6.806;2022-08-01T13:11:39;3.45;;;1.83;;
4353;SDS011;11018;51.258;6.806;2022-08-01T13:14:05;1.80;;;1.70;;
4353;SDS011;11018;51.258;6.806;2022-08-01T13:16:32;2.10;;;1.90;;
4353;SDS011;11018;51.258;6.806;2022-08-01T13:19:09;2.30;;;2.10;;
4353;SDS011;11018;51.258;6.806;2022-08-01T13:21:35;1.93;;;1.83;;
4353;SDS011;11018;51.258;6.806;2022-08-01T13:24:05;2.50;;;2.10;;
4353;SDS011;11018;51.258;6.806;2022-08-01T13:29:11;3.20;;;2.00;;
4353;SDS011;11018;51.258;6.806;2022-08-01T13:31:45;3.25;;;1.90;;
4353;SDS011;11018;51.258;6.806;2022-08-01T13:34:11;2.20;;;1.73;;
4353;SDS011;11018;51.258;6.806;2022-08-01T13:36:37;3.00;;;2.10;;
4353;SDS011;11018;51.258;6.806;2022-08-01T13:39:04;3.03;;;2.05;;
4353;SDS011;11018;51.258;6.806;2022-08-01T13:41:49;3.10;;;2.40;;
4353;SDS011;11018;51.258;6.806;2022-08-01T13:44:16;2.28;;;2.00;;
4353;SDS011;11018;51.258;6.806;2022-08-01T13:46:42;4.10;;;2.60;;
4353;SDS011;11018;51.258;6.806;2022-08-01T13:49:09;2.40;;;2.20;;
4353;SDS011;11018;51.258;6.806;2022-08-01T13:51:36;4.15;;;2.75;;
4353;SDS011;11018;51.258;6.806;2022-08-01T13:54:02;2.90;;;2.60;;
4353;SDS011;11018;51.258;6.806;2022-08-01T13:56:28;5.25;;;3.13;;
4353;SDS011;11018;51.258;6.806;2022-08-01T13:58:54;3.50;;;2.63;;
4353;SDS011;11018;51.258;6.806;2022-08-01T14:01:20;2.65;;;2.45;;
4353;SDS011;11018;51.258;6.806;2022-08-01T14:03:46;5.20;;;2.53;;
4353;SDS011;11018;51.258;6.806;2022-08-01T14:06:12;4.65;;;2.22;;
4353;SDS011;11018;51.258;6.806;2022-08-01T14:08:40;2.85;;;2.20;;
4353;SDS011;11018;51.258;6.806;2022-08-01T14:11:06;2.85;;;2.60;;
4353;SDS011;11018;51.258;6.806;2022-08-01T14:13:32;4.72;;;2.50;;
4353;SDS011;11018;51.258;6.806;2022-08-01T14:15:58;5.40;;;2.60;;
4353;SDS011;11018;51.258;6.806;2022-08-01T14:18:24;4.03;;;3.63;;
4353;SDS011;11018;51.258;6.806;2022-08-01T14:20:50;3.10;;;2.22;;
4353;SDS011;11018;51.258;6.806;2022-08-01T14:23:16;2.60;;;2.40;;
4353;SDS011;11018;51.258;6.806;2022-08-01T14:25:42;3.00;;;2.30;;
4353;SDS011;11018;51.258;6.806;2022-08-01T14:28:09;2.42;;;2.00;;
4353;SDS011;11018;51.258;6.806;2022-08-01T14:30:35;2.05;;;1.95;;
4353;SDS011;11018;51.258;6.806;2022-08-01T14:33:01;2.58;;;1.88;;
4353;SDS011;11018;51.258;6.806;2022-08-01T14:35:26;2.67;;;1.97;;
4353;SDS011;11018;51.258;6.806;2022-08-01T14:37:52;2.72;;;1.80;;
4353;SDS011;11018;51.258;6.806;2022-08-01T14:40:18;3.10;;;1.80;;
4353;SDS011;11018;51.258;6.806;2022-08-01T14:42:47;3.78;;;2.30;;
4353;SDS011;11018;51.258;6.806;2022-08-01T14:45:13;2.80;;;2.42;;
4353;SDS011;11018;51.258;6.806;2022-08-01T14:47:40;4.40;;;2.70;;
4353;SDS011;11018;51.258;6.806;2022-08-01T14:50:08;4.38;;;3.00;;
4353;SDS011;11018;51.258;6.806;2022-08-01T14:52:36;5.95;;;3.15;;
4353;SDS011;11018;51.258;6.806;2022-08-01T14:55:03;5.57;;;3.30;;
4353;SDS011;11018;51.258;6.806;2022-08-01T14:57:30;4.20;;;2.90;;
4353;SDS011;11018;51.258;6.806;2022-08-01T14:59:56;4.00;;;2.80;;
4353;SDS011;11018;51.258;6.806;2022-08-01T15:02:22;4.40;;;3.00;;
4353;SDS011;11018;51.258;6.806;2022-08-01T15:04:48;2.95;;;2.50;;
4353;SDS011;11018;51.258;6.806;2022-08-01T15:07:14;4.22;;;2.90;;
4353;SDS011;11018;51.258;6.806;2022-08-01T15:09:40;3.00;;;2.70;;
4353;SDS011;11018;51.258;6.806;2022-08-01T15:12:06;3.88;;;2.70;;
4353;SDS011;11018;51.258;6.806;2022-08-01T15:14:32;2.55;;;2.35;;
4353;SDS011;11018;51.258;6.806;2022-08-01T15:17:13;10.40;;;2.85;;
4353;SDS011;11018;51.258;6.806;2022-08-01T15:19:40;5.07;;;2.70;;
4353;SDS011;11018;51.258;6.806;2022-08-01T15:22:05;5.72;;;2.85;;
4353;SDS011;11018;51.258;6.806;2022-08-01T15:24:31;3.93;;;2.70;;
4353;SDS011;11018;51.258;6.806;2022-08-01T15:26:57;5.40;;;2.67;;
4353;SDS011;11018;51.258;6.806;2022-08-01T15:29:22;3.70;;;2.70;;
4353;SDS011;11018;51.258;6.806;2022-08-01T15:31:48;3.95;;;2.95;;
4353;SDS011;11018;51.258;6.806;2022-08-01T15:34:14;5.25;;;2.83;;
4353;SDS011;11018;51.258;6.806;2022-08-01T15:36:40;2.80;;;2.60;;
4353;SDS011;11018;51.258;6.806;2022-08-01T15:39:07;4.55;;;2.60;;
4353;SDS011;11018;51.258;6.806;2022-08-01T15:41:34;3.40;;;2.80;;
4353;SDS011;11018;51.258;6.806;2022-08-01T15:43:59;6.13;;;2.80;;
4353;SDS011;11018;51.258;6.806;2022-08-01T15:46:25;8.47;;;3.23;;
4353;SDS011;11018;51.258;6.806;2022-08-01T15:48:50;4.63;;;2.80;;
4353;SDS011;11018;51.258;6.806;2022-08-01T15:51:16;2.90;;;2.60;;